createdAt,value
2016-04-11T10:46:59.077Z,29.36
2016-04-11T10:47:12.500Z,28.89
2016-04-11T10:47:27.000Z,28.31
2016-04-11T10:47:41.063Z,27.84
2016-04-11T10:47:54.969Z,27.94
2016-04-11T10:48:08.985Z,27.27
2016-04-11T10:48:23.441Z,26.79
2016-04-11T10:48:40.253Z,26.79
2016-04-11T10:48:54.082Z,27.37
2016-04-11T10:49:08.144Z,27.38
2016-04-11T10:49:21.975Z,26.89
2016-04-11T10:49:35.913Z,26.53
2016-04-11T10:49:50.272Z,26.72
2016-04-11T10:50:04.085Z,26.9
2016-04-11T10:50:18.258Z,27.09
2016-04-11T10:50:32.008Z,26.72
2016-04-11T10:50:45.837Z,26.24
2016-04-11T10:51:00.149Z,26.24
2016-04-11T10:51:13.918Z,26.62
2016-04-11T10:51:41.761Z,26.81
2016-04-11T10:51:55.621Z,27
2016-04-11T10:52:09.933Z,27.86
2016-04-11T10:52:38.139Z,28.42
2016-04-11T10:52:52.280Z,28.33
2016-04-11T10:53:06.171Z,28.14
2016-04-11T10:53:20.111Z,27.57
2016-04-11T10:53:34.049Z,27.86
2016-04-11T10:53:48.283Z,27.57
2016-04-11T10:54:02.080Z,27.48
2016-04-11T10:54:15.894Z,27.28
2016-04-11T10:54:29.863Z,26.81
2016-04-11T10:54:43.754Z,26.51
2016-04-11T10:54:57.676Z,27.08
2016-04-11T10:55:11.535Z,27.18
2016-04-11T10:55:25.554Z,28.31
2016-04-11T10:55:39.522Z,29.17
2016-04-11T10:55:53.429Z,29.17
2016-04-11T10:56:35.556Z,29.27
2016-04-11T10:56:49.462Z,29.93
2016-04-11T10:57:03.368Z,30.51
2016-04-11T10:57:17.169Z,30.51
2016-04-11T10:57:31.153Z,30.51
2016-04-11T10:57:45.278Z,30.41
2016-04-11T10:57:59.466Z,30.12
2016-04-11T10:58:13.265Z,29.46
2016-04-11T10:58:27.843Z,29.17
2016-04-11T10:58:41.640Z,29.55
2016-04-11T10:58:55.655Z,30.51
2016-04-11T10:59:09.734Z,31.17
2016-04-11T10:59:23.627Z,32.21
2016-04-11T10:59:37.518Z,32.97
2016-04-11T10:59:51.549Z,34.3
2016-04-11T11:00:05.252Z,36.3
2016-04-11T11:00:33.785Z,39.43
2016-04-11T11:00:47.410Z,38.58
2016-04-11T11:01:01.145Z,37.54
2016-04-11T11:01:15.226Z,35.83
2016-04-11T11:01:28.929Z,33.92
2016-04-11T11:01:42.851Z,31.56
2016-04-11T11:01:55.929Z,30.33
2016-04-11T11:02:09.773Z,28.9
2016-04-11T11:02:23.494Z,27.86
2016-04-11T11:02:37.306Z,26.9
2016-04-11T11:02:50.837Z,26.14
2016-04-11T11:03:05.134Z,25.48
2016-04-11T11:03:19.294Z,24.91
2016-04-11T11:03:33.248Z,24.72
2016-04-11T11:03:46.951Z,24.34
2016-04-11T11:04:00.966Z,24.72
2016-04-11T11:04:14.891Z,24.15
2016-04-11T11:04:28.626Z,24.05
2016-04-11T11:04:50.782Z,24.15
2016-04-11T11:05:04.422Z,24.43
2016-04-11T11:05:46.424Z,26.14
2016-04-11T11:06:00.268Z,26.81
2016-04-11T11:06:14.192Z,27.48
2016-04-11T11:06:27.895Z,29.38
2016-04-11T11:06:55.755Z,32.61
2016-04-11T11:07:10.005Z,32.42
2016-04-11T11:07:24.523Z,31.47
2016-04-11T11:07:38.523Z,30.52
2016-04-11T11:07:52.320Z,29.57
2016-04-11T11:08:06.164Z,28.62
2016-04-11T11:08:19.916Z,27.67
2016-04-11T11:08:34.072Z,27.28
2016-04-11T11:08:47.806Z,26.72
2016-04-11T11:09:02.228Z,26.05
2016-04-11T11:09:15.998Z,25.86
2016-04-11T11:09:29.779Z,26.14
2016-04-11T11:09:43.154Z,26.34
2016-04-11T11:09:57.498Z,26.24
2016-04-11T11:10:40.235Z,25.57
2016-04-11T11:10:54.079Z,25.48
2016-04-11T11:11:07.188Z,25.57
2016-04-11T11:11:21.706Z,25.57
2016-04-11T11:11:35.987Z,25.76
2016-04-11T11:11:49.956Z,25.86
2016-04-11T11:12:06.753Z,26.05
2016-04-11T11:12:20.677Z,25.95
2016-04-11T11:12:34.771Z,25.48
2016-04-11T11:12:48.927Z,25.48
2016-04-11T11:13:02.567Z,25.29
2016-04-11T11:13:16.321Z,24.91
2016-04-11T11:13:30.212Z,25.29
2016-04-11T11:13:44.212Z,25.48
2016-04-11T11:13:57.884Z,25.57
2016-04-11T11:14:11.978Z,25.48
2016-04-11T11:14:40.167Z,25.38
2016-04-11T11:14:53.433Z,25.57
2016-04-11T11:15:07.980Z,25.38
2016-04-11T11:15:21.811Z,25.01
2016-04-11T11:15:35.576Z,25.2
2016-04-11T11:15:49.451Z,24.72
2016-04-11T11:16:03.280Z,24.62
2016-04-11T11:16:17.297Z,24.53
2016-04-11T11:16:31.313Z,25.1
2016-04-11T11:16:48.157Z,25.48
2016-04-11T11:17:02.282Z,25.95
2016-04-11T11:17:16.176Z,26.98
2016-04-11T11:17:33.098Z,30.12
2016-04-11T11:17:47.082Z,34.3
2016-04-11T11:18:01.286Z,37.73
2016-04-11T11:18:15.803Z,39.72
2016-04-11T11:18:29.741Z,38.77
2016-04-11T11:18:43.616Z,37.92
2016-04-11T11:18:57.584Z,37.82
2016-04-11T11:19:11.319Z,37.92
2016-04-11T11:19:25.274Z,36.58
2016-04-11T11:19:53.399Z,33.26
2016-04-11T11:20:07.165Z,32.21
2016-04-11T11:20:24.168Z,31.84
2016-04-11T11:20:38.027Z,32.69
2016-04-11T11:20:51.714Z,34.11
2016-04-11T11:21:05.527Z,36.96
2016-04-11T11:21:19.202Z,39.06
2016-04-11T11:21:34.264Z,41.89
2016-04-11T11:21:48.186Z,45.14
2016-04-11T11:22:02.374Z,47.99
2016-04-11T11:22:17.048Z,49.79
2016-04-11T11:22:31.126Z,50.74
2016-04-11T11:22:47.923Z,50.74
2016-04-11T11:23:04.688Z,48.08
2016-04-11T11:23:18.644Z,45.78
2016-04-11T11:23:32.769Z,43.12
2016-04-11T11:23:47.144Z,41.6
2016-04-11T11:24:00.988Z,41.03
2016-04-11T11:24:14.788Z,40.75
2016-04-11T11:24:28.819Z,41.86
2016-04-11T11:24:42.913Z,41.69
2016-04-11T11:24:56.569Z,43.6
2016-04-11T11:25:10.413Z,46.45
2016-04-11T11:25:24.166Z,48.16
2016-04-11T11:25:37.947Z,49.2
2016-04-11T11:25:54.775Z,46.73
2016-04-11T11:26:12.119Z,43.69
2016-04-11T11:26:26.137Z,42.65
2016-04-11T11:26:45.918Z,42.65
2016-04-11T11:27:00.043Z,42.83
2016-04-11T11:27:14.062Z,42.74
2016-04-11T11:27:28.077Z,43.21
2016-04-11T11:27:44.968Z,45.21
2016-04-11T11:28:02.030Z,48.25
2016-04-11T11:28:15.908Z,50.53
2016-04-11T11:28:30.143Z,51.76
2016-04-11T11:28:44.111Z,53.09
2016-04-11T11:28:58.111Z,53.95
2016-04-11T11:29:12.771Z,55.82
2016-04-11T11:29:27.239Z,56.58
2016-04-11T11:29:41.114Z,57.75
2016-04-11T11:29:55.177Z,58.51
2016-04-11T11:30:09.083Z,59.14
2016-04-11T11:30:22.835Z,59.81
2016-04-11T11:30:36.648Z,60.47
2016-04-11T11:31:04.648Z,60.79
2016-04-11T11:31:18.682Z,60.69
2016-04-11T11:31:46.744Z,60.98
2016-04-11T11:32:00.838Z,60.98
2016-04-11T11:32:20.543Z,60.13
2016-04-11T11:32:48.512Z,58.32
2016-04-11T11:33:02.825Z,58.22
2016-04-11T11:33:17.046Z,56.83
2016-04-11T11:33:30.828Z,56.7
2016-04-11T11:33:44.562Z,57.28
2016-04-11T11:34:12.439Z,57.56
2016-04-11T11:34:26.251Z,58.06
2016-04-11T11:34:40.705Z,58.35
2016-04-11T11:34:54.533Z,58.35
2016-04-11T11:35:22.645Z,58.73
2016-04-11T11:35:36.754Z,59.39
2016-04-11T11:35:53.489Z,59.2
2016-04-11T11:36:07.692Z,59.3
2016-04-11T11:36:21.711Z,59.3
2016-04-11T11:36:35.945Z,59.3
2016-04-11T11:36:49.836Z,59.3
2016-04-11T11:37:06.648Z,59.68
2016-04-11T11:37:26.479Z,59.77
2016-04-11T11:37:40.182Z,59.87
2016-04-11T11:37:53.948Z,59.96
2016-04-11T11:38:08.026Z,59.77
2016-04-11T11:38:21.951Z,59.49
2016-04-11T11:38:36.076Z,59.3
2016-04-11T11:38:50.013Z,59.39
2016-04-11T11:39:03.076Z,59.01
2016-04-11T11:39:17.250Z,59.11
2016-04-11T11:39:31.047Z,59.11
2016-04-11T11:39:59.015Z,59.3
2016-04-11T11:40:12.768Z,58.98
2016-04-11T11:40:27.362Z,59.27
2016-04-11T11:40:41.315Z,59.84
2016-04-11T11:40:55.706Z,59.93
2016-04-11T11:41:09.550Z,60.6
2016-04-11T11:41:23.396Z,60.6
2016-04-11T11:41:37.225Z,60.79
2016-04-11T11:42:19.070Z,61.77
2016-04-11T11:42:33.008Z,62.05
2016-04-11T11:42:47.195Z,61.77
2016-04-11T11:43:01.008Z,61.96
2016-04-11T11:43:14.011Z,62.15
2016-04-11T11:43:28.214Z,62.24
2016-04-11T11:43:42.105Z,61.83
2016-04-11T11:43:55.855Z,61.83
2016-04-11T11:44:09.651Z,62.21
2016-04-11T11:44:26.483Z,62.88
2016-04-11T11:44:40.592Z,63.17
2016-04-11T11:44:54.592Z,63.64
2016-04-11T11:45:08.389Z,63.64
2016-04-11T11:45:22.251Z,63.45
2016-04-11T11:45:36.736Z,63.45
2016-04-11T11:45:50.611Z,63.51
2016-04-11T11:46:04.501Z,63.51
2016-04-11T11:46:18.316Z,63.42
2016-04-11T11:46:32.409Z,63.42
2016-04-11T11:46:46.191Z,63.32
2016-04-11T11:47:00.050Z,63.6
2016-04-11T11:47:14.491Z,63.42
2016-04-11T11:47:28.381Z,63.7
2016-04-11T11:47:42.412Z,63.7
2016-04-11T11:47:56.475Z,63.98
2016-04-11T11:48:11.084Z,64.08
2016-04-11T11:48:25.025Z,64.27
2016-04-11T11:48:39.009Z,64.56
2016-04-11T11:48:52.931Z,64.08
2016-04-11T11:49:06.775Z,64.46
2016-04-11T11:49:21.292Z,64.17
2016-04-11T11:49:35.292Z,64.08
2016-04-11T11:49:50.136Z,64.46
2016-04-11T11:50:04.027Z,64.94
2016-04-11T11:50:46.499Z,65.22
2016-04-11T11:51:00.483Z,64.84
2016-04-11T11:51:14.454Z,65.12
2016-04-11T11:51:31.751Z,65.31
2016-04-11T11:51:45.688Z,65.31
2016-04-11T11:51:59.657Z,65.79
2016-04-11T11:52:13.583Z,66.17
2016-04-11T11:52:27.442Z,66.04
2016-04-11T11:52:41.505Z,66.14
2016-04-11T11:52:55.520Z,66.33
2016-04-11T11:53:09.801Z,66.33
2016-04-11T11:53:23.975Z,67.18
2016-04-11T11:53:37.678Z,66.71
2016-04-11T11:53:51.460Z,67.18
2016-04-11T11:54:05.444Z,68.23
2016-04-11T11:54:19.385Z,68.13
2016-04-11T11:54:33.181Z,68.04
2016-04-11T11:54:50.228Z,68.51
2016-04-11T11:55:04.166Z,68.51
2016-04-11T11:55:18.121Z,68.89
2016-04-11T11:55:32.324Z,69.55
2016-04-11T11:55:46.246Z,69.65
2016-04-11T11:56:00.074Z,70.03
2016-04-11T11:56:14.202Z,69.93
2016-04-11T11:56:28.530Z,69.84
2016-04-11T11:56:42.327Z,69.55
2016-04-11T11:56:56.265Z,69.27
2016-04-11T11:57:27.158Z,69.46
2016-04-11T11:57:42.111Z,69.08
2016-04-11T11:57:56.096Z,68.89
2016-04-11T11:58:09.986Z,68.85
2016-04-11T11:58:23.801Z,68.95
2016-04-11T11:58:37.660Z,68.85
2016-04-11T11:58:51.973Z,68.95
2016-04-11T11:59:05.973Z,69.61
2016-04-11T11:59:19.898Z,70.09
2016-04-11T11:59:33.663Z,70.65
2016-04-11T11:59:47.804Z,71.09
2016-04-11T12:00:15.821Z,71.57
2016-04-11T12:00:29.493Z,71.95
2016-04-11T12:00:43.696Z,72.33
2016-04-11T12:00:58.259Z,73.08
2016-04-11T12:01:11.931Z,73.65
2016-04-11T12:01:26.310Z,74.22
2016-04-11T12:01:40.122Z,74.6
2016-04-11T12:01:54.013Z,74.98
2016-04-11T12:02:08.138Z,74.98
2016-04-11T12:02:22.156Z,74.98
2016-04-11T12:02:39.374Z,74.88
2016-04-11T12:02:52.609Z,75.07
2016-04-11T12:03:06.515Z,74.6
2016-04-11T12:03:20.236Z,74.88
2016-04-11T12:03:34.001Z,74.79
2016-04-11T12:03:47.970Z,74.51
2016-04-11T12:04:01.954Z,73.84
2016-04-11T12:04:15.958Z,74.13
2016-04-11T12:04:29.912Z,74.22
2016-04-11T12:04:44.755Z,74.13
2016-04-11T12:04:58.615Z,73.84
2016-04-11T12:05:12.505Z,73.65
2016-04-11T12:05:26.493Z,73.56
2016-04-11T12:05:40.321Z,73.84
2016-04-11T12:05:54.727Z,74.13
2016-04-11T12:06:08.368Z,73.75
2016-04-11T12:06:22.151Z,73.56
2016-04-11T12:06:37.104Z,73.75
2016-04-11T12:06:51.057Z,73.75
2016-04-11T12:07:05.198Z,73.08
2016-04-11T12:07:19.200Z,73.84
2016-04-11T12:07:33.153Z,73.08
2016-04-11T12:07:47.044Z,73.37
2016-04-11T12:08:00.950Z,72.45
2016-04-11T12:08:14.923Z,72.08
2016-04-11T12:08:29.813Z,71.89
2016-04-11T12:08:43.860Z,71.03
2016-04-11T12:08:58.298Z,71.22
2016-04-11T12:09:15.283Z,70.94
2016-04-11T12:09:29.595Z,70.18
2016-04-11T12:09:47.533Z,69.71
2016-04-11T12:10:01.392Z,69.52
2016-04-11T12:10:15.349Z,69.67
2016-04-11T12:10:29.599Z,69.86
2016-04-11T12:10:43.553Z,70.05
2016-04-11T12:10:57.428Z,70.53
2016-04-11T12:11:11.412Z,70.81
2016-04-11T12:11:25.414Z,71
2016-04-11T12:11:42.758Z,71.85
2016-04-11T12:11:56.867Z,71.85
2016-04-11T12:12:10.898Z,72.33
2016-04-11T12:12:24.745Z,72.89
2016-04-11T12:12:39.073Z,74.03
2016-04-11T12:12:53.089Z,75.07
2016-04-11T12:13:07.151Z,75.32
2016-04-11T12:13:21.014Z,75.04
2016-04-11T12:13:35.279Z,75.13
2016-04-11T12:13:49.217Z,76.17
2016-04-11T12:14:03.201Z,76.4
2016-04-11T12:14:17.876Z,76.12
2016-04-11T12:14:31.735Z,75.64
2016-04-11T12:14:46.064Z,76.03
2016-04-11T12:15:00.189Z,75.74
2016-04-11T12:15:14.722Z,75.45
2016-04-11T12:15:31.597Z,74.88
2016-04-11T12:15:45.581Z,74.6
2016-04-11T12:15:59.519Z,74.88
2016-04-11T12:16:13.411Z,74.88
2016-04-11T12:16:27.271Z,74.79
2016-04-11T12:16:41.052Z,75.26
2016-04-11T12:16:54.818Z,74.88
2016-04-11T12:17:08.771Z,74.88
2016-04-11T12:17:22.962Z,75.07
2016-04-11T12:17:37.587Z,74.95
2016-04-11T12:17:51.384Z,75.04
2016-04-11T12:18:05.337Z,75.42
2016-04-11T12:18:19.417Z,75.51
2016-04-11T12:18:33.292Z,75.79
2016-04-11T12:18:47.167Z,76.08
2016-04-11T12:19:01.027Z,76.65
2016-04-11T12:19:14.998Z,76.89
2016-04-11T12:19:28.248Z,77.37
2016-04-11T12:19:42.467Z,78.13
2016-04-11T12:19:56.186Z,78.59
2016-04-11T12:20:10.186Z,78.54
2016-04-11T12:20:24.157Z,78.54
2016-04-11T12:20:38.110Z,78.45
2016-04-11T12:20:52.657Z,77.88
2016-04-11T12:21:09.579Z,77.5
2016-04-11T12:21:23.457Z,76.87
2016-04-11T12:21:37.285Z,76.59
2016-04-11T12:21:51.128Z,76.87
2016-04-11T12:22:05.113Z,76.12
2016-04-11T12:22:19.022Z,75.64
2016-04-11T12:22:33.225Z,75.64
2016-04-11T12:23:15.353Z,75.55
2016-04-11T12:23:43.103Z,75.07
2016-04-11T12:24:39.574Z,72.8
2016-04-11T12:24:53.636Z,73.12
2016-04-11T12:25:07.668Z,73.18
2016-04-11T12:25:21.671Z,72.89
2016-04-11T12:25:35.639Z,73.56
2016-04-11T12:25:49.483Z,73.75
2016-04-11T12:26:03.311Z,73.65
2016-04-11T12:26:31.361Z,74.32
2016-04-11T12:26:45.658Z,74.79
2016-04-11T12:26:59.705Z,74.98
2016-04-11T12:27:30.644Z,74.98
2016-04-11T12:27:44.832Z,75.45
2016-04-11T12:27:58.707Z,75.55
2016-04-11T12:28:12.754Z,75.55
2016-04-11T12:28:26.616Z,75.64
2016-04-11T12:28:40.085Z,75.74
2016-04-11T12:28:54.054Z,76.03
2016-04-11T12:29:08.226Z,75.74
2016-04-11T12:29:22.806Z,75.64
2016-04-11T12:29:36.696Z,75.36
2016-04-11T12:29:50.696Z,76.03
2016-04-11T12:30:07.634Z,75.45
2016-04-11T12:30:21.794Z,76.12
2016-04-11T12:30:36.028Z,76.31
2016-04-11T12:30:49.966Z,76.21
2016-04-11T12:31:04.060Z,76.31
2016-04-11T12:31:17.249Z,76.03
2016-04-11T12:31:31.312Z,76.12
2016-04-11T12:31:45.327Z,76.03
2016-04-11T12:31:59.468Z,76.03
2016-04-11T12:32:13.327Z,76.03
2016-04-11T12:32:41.502Z,76.21
2016-04-11T12:32:55.502Z,75.93
2016-04-11T12:33:09.596Z,75.64
2016-04-11T12:33:23.504Z,75.17
2016-04-11T12:33:37.457Z,74.69
2016-04-11T12:33:51.504Z,74.88
2016-04-11T12:34:05.332Z,74.88
2016-04-11T12:34:19.398Z,74.6
2016-04-11T12:34:33.429Z,74.69
2016-04-11T12:34:47.585Z,74.32
2016-04-11T12:35:01.757Z,73.97
2016-04-11T12:35:16.338Z,74.16
2016-04-11T12:35:33.338Z,74.07
2016-04-11T12:35:50.698Z,74.07
2016-04-11T12:36:04.463Z,73.5
2016-04-11T12:36:18.497Z,73.6
2016-04-11T12:36:35.434Z,73.22
2016-04-11T12:36:49.700Z,72.93
2016-04-11T12:37:03.762Z,72.55
2016-04-11T12:37:17.656Z,72.52
2016-04-11T12:37:35.093Z,72.89
2016-04-11T12:37:52.750Z,73.08
2016-04-11T12:38:06.843Z,73.08
2016-04-11T12:38:20.831Z,73.27
2016-04-11T12:38:34.706Z,73.75
2016-04-11T12:38:48.862Z,73.6
2016-04-11T12:39:02.753Z,73.41
2016-04-11T12:39:16.506Z,73.12
2016-04-11T12:39:30.662Z,73.03
2016-04-11T12:39:44.912Z,72.55
2016-04-11T12:39:58.224Z,72.55
2016-04-11T12:40:12.068Z,72.55
2016-04-11T12:40:26.259Z,72.27
2016-04-11T12:40:40.540Z,72.68
2016-04-11T12:40:54.743Z,72.49
2016-04-11T12:41:08.430Z,72.3
2016-04-11T12:41:22.354Z,72.3
2016-04-11T12:41:50.386Z,71.92
2016-04-11T12:42:03.901Z,71.83
2016-04-11T12:42:31.872Z,71.83
2016-04-11T12:42:48.575Z,71.92
2016-04-11T12:43:16.781Z,72.11
2016-04-11T12:43:33.719Z,72.11
2016-04-11T12:43:47.641Z,72.3
2016-04-11T12:44:01.719Z,72.4
2016-04-11T12:44:15.956Z,72.49
2016-04-11T12:44:30.175Z,72.4
2016-04-11T12:44:44.034Z,72.59
2016-04-11T12:45:11.894Z,72.49
2016-04-11T12:45:26.256Z,72.59
2016-04-11T12:45:40.084Z,72.4
2016-04-11T12:45:54.006Z,72.59
2016-04-11T12:46:08.022Z,72.97
2016-04-11T12:46:21.836Z,73.07
2016-04-11T12:46:35.133Z,72.97
2016-04-11T12:46:49.242Z,73.16
2016-04-11T12:47:03.055Z,73.54
2016-04-11T12:47:16.902Z,73.41
2016-04-11T12:47:45.105Z,73.69
2016-04-11T12:47:58.839Z,73.5
2016-04-11T12:48:13.152Z,74.26
2016-04-11T12:48:27.029Z,74.64
2016-04-11T12:48:40.841Z,74.88
2016-04-11T12:48:54.654Z,75.45
2016-04-11T12:49:08.450Z,76.12
2016-04-11T12:49:22.423Z,76.5
2016-04-11T12:49:36.251Z,77.06
2016-04-11T12:49:50.064Z,76.87
2016-04-11T12:50:04.158Z,76.97
2016-04-11T12:50:18.286Z,77.31
2016-04-11T12:50:32.036Z,78.26
2016-04-11T12:50:45.832Z,78.16
2016-04-11T12:51:02.848Z,78.26
2016-04-11T12:51:16.725Z,78.07
2016-04-11T12:51:30.663Z,78.64
2016-04-11T12:51:44.600Z,78.54
2016-04-11T12:51:58.444Z,78.16
2016-04-11T12:52:12.334Z,78.45
2016-04-11T12:52:26.259Z,79.21
2016-04-11T12:52:40.166Z,79.49
2016-04-11T12:52:54.181Z,79.68
2016-04-11T12:53:07.806Z,79.87
2016-04-11T12:53:21.543Z,79.96
2016-04-11T12:53:35.355Z,80.53
2016-04-11T12:53:49.418Z,80.44
2016-04-11T12:54:03.636Z,81.2
2016-04-11T12:54:17.702Z,80.91
2016-04-11T12:54:31.780Z,81.01
2016-04-11T12:54:45.874Z,81.48
2016-04-11T12:54:59.874Z,81.67
2016-04-11T12:55:16.688Z,81.86
2016-04-11T12:55:44.641Z,82.33
2016-04-11T12:55:58.391Z,82.71
2016-04-11T12:56:12.360Z,82.43
2016-04-11T12:56:26.019Z,82.81
2016-04-11T12:56:39.910Z,83.18
2016-04-11T12:56:53.894Z,83.05
2016-04-11T12:57:36.007Z,84
2016-04-11T12:57:50.007Z,83.9
2016-04-11T12:58:03.788Z,84.28
2016-04-11T12:58:17.790Z,84.28
2016-04-11T12:58:31.571Z,84.09
2016-04-11T12:58:45.415Z,84.09
2016-04-11T12:58:58.431Z,83.71
2016-04-11T12:59:12.634Z,83.9
2016-04-11T12:59:26.435Z,84.13
2016-04-11T12:59:40.591Z,83.94
2016-04-11T12:59:54.325Z,84.04
2016-04-11T13:00:08.263Z,84.13
2016-04-11T13:00:22.233Z,83.56
2016-04-11T13:00:36.343Z,83.43
2016-04-11T13:00:50.280Z,83.18
2016-04-11T13:01:04.233Z,82.9
2016-04-11T13:01:18.315Z,82.67
2016-04-11T13:01:32.049Z,82.9
2016-04-11T13:01:45.471Z,83.09
2016-04-11T13:01:59.346Z,83.05
2016-04-11T13:02:13.393Z,82.95
2016-04-11T13:02:27.301Z,83.43
2016-04-11T13:02:41.176Z,82.86
2016-04-11T13:02:55.004Z,82.67
2016-04-11T13:03:09.613Z,82.48
2016-04-11T13:03:23.413Z,81.86
2016-04-11T13:03:37.304Z,81.95
2016-04-11T13:03:50.257Z,81.95
2016-04-11T13:04:07.366Z,81.67
2016-04-11T13:04:21.307Z,82.14
2016-04-11T13:04:35.807Z,81.38
2016-04-11T13:04:50.323Z,81.2
2016-04-11T13:05:04.229Z,80.82
2016-04-11T13:05:18.200Z,81.15
2016-04-11T13:05:32.528Z,81.38
2016-04-11T13:05:46.965Z,81.25
2016-04-11T13:06:00.793Z,81.82
2016-04-11T13:06:14.421Z,82.1
2016-04-11T13:06:28.437Z,81.72
2016-04-11T13:06:42.656Z,82.86
2016-04-11T13:06:56.640Z,83.52
2016-04-11T13:07:10.859Z,83.71
2016-04-11T13:07:24.831Z,84.09
2016-04-11T13:07:38.049Z,83.9
2016-04-11T13:08:04.299Z,83.9
2016-04-11T13:08:18.614Z,83.9
2016-04-11T13:08:32.473Z,83.9
2016-04-11T13:08:46.473Z,84
2016-04-11T13:09:00.426Z,84
2016-04-11T13:09:14.461Z,84
2016-04-11T13:09:31.414Z,84.13
2016-04-11T13:09:45.445Z,84
2016-04-11T13:09:59.539Z,83.75
2016-04-11T13:10:13.867Z,83.9
2016-04-11T13:10:27.823Z,84
2016-04-11T13:10:41.729Z,83.94
2016-04-11T13:10:55.542Z,84.09
2016-04-11T13:11:09.776Z,84.47
2016-04-11T13:11:23.795Z,84.28
2016-04-11T13:11:43.795Z,84.19
2016-04-11T13:11:57.842Z,84.85
2016-04-11T13:12:12.029Z,84.66
2016-04-11T13:12:29.110Z,84.94
2016-04-11T13:12:43.048Z,85.13
2016-04-11T13:12:56.954Z,85.42
2016-04-11T13:13:11.048Z,85.13
2016-04-11T13:13:24.862Z,85.7
2016-04-11T13:13:38.612Z,85.61
2016-04-11T13:13:53.050Z,85.61
2016-04-11T13:14:06.940Z,85.61
2016-04-11T13:14:21.178Z,85.7
2016-04-11T13:14:35.725Z,85.7
2016-04-11T13:15:03.568Z,84.85
2016-04-11T13:15:17.852Z,84.66
2016-04-11T13:15:31.898Z,85.13
2016-04-11T13:15:46.008Z,84.28
2016-04-11T13:15:59.898Z,83.94
2016-04-11T13:16:13.977Z,83.75
2016-04-11T13:16:28.245Z,83.56
2016-04-11T13:16:42.183Z,83.09
2016-04-11T13:16:56.480Z,82.52
2016-04-11T13:17:10.292Z,81.86
2016-04-11T13:17:24.733Z,81.57
2016-04-11T13:17:38.639Z,80.91
2016-04-11T13:17:52.795Z,80.91
2016-04-11T13:18:06.701Z,80.53
2016-04-11T13:18:20.563Z,80.91
2016-04-11T13:18:34.438Z,80.72
2016-04-11T13:18:48.563Z,80.72
2016-04-11T13:19:02.828Z,81.1
2016-04-11T13:19:16.941Z,81.2
2016-04-11T13:19:30.769Z,81.29
2016-04-11T13:19:44.613Z,81.67
2016-04-11T13:19:59.175Z,82.24
2016-04-11T13:20:13.191Z,83
2016-04-11T13:20:27.631Z,83.85
2016-04-11T13:20:42.053Z,84.13
2016-04-11T13:20:56.319Z,85.17
2016-04-11T13:21:13.334Z,85.74
2016-04-11T13:21:27.211Z,85.46
2016-04-11T13:21:41.243Z,85.36
2016-04-11T13:21:55.227Z,85.17
2016-04-11T13:22:09.383Z,85.61
2016-04-11T13:22:23.496Z,85.04
2016-04-11T13:22:37.167Z,85.51
2016-04-11T13:22:51.042Z,85.65
2016-04-11T13:23:04.746Z,85.74
2016-04-11T13:23:19.374Z,85.17
2016-04-11T13:23:33.124Z,85.55
2016-04-11T13:23:46.874Z,85.46
2016-04-11T13:24:00.639Z,85.08
2016-04-11T13:24:14.514Z,85.65
2016-04-11T13:24:34.627Z,85.03
2016-04-11T13:24:48.377Z,84.27
2016-04-11T13:25:02.470Z,84.08
2016-04-11T13:25:30.550Z,82.94
2016-04-11T13:25:44.582Z,82.98
2016-04-11T13:25:58.550Z,83.17
2016-04-11T13:26:12.363Z,82.89
2016-04-11T13:26:26.413Z,82.04
2016-04-11T13:26:40.241Z,82.13
2016-04-11T13:26:54.522Z,81.56
2016-04-11T13:27:08.553Z,81.75
2016-04-11T13:27:22.477Z,81.09
2016-04-11T13:27:50.368Z,79.47
2016-04-11T13:28:03.602Z,78.62
2016-04-11T13:28:17.480Z,78.19
2016-04-11T13:28:34.449Z,77.81
2016-04-11T13:28:52.012Z,77.33
2016-04-11T13:29:06.574Z,77.24
2016-04-11T13:29:21.124Z,76.73
2016-04-11T13:29:35.218Z,76.82
2016-04-11T13:29:49.046Z,76.82
2016-04-11T13:30:03.124Z,77.01
2016-04-11T13:30:17.246Z,77.67
2016-04-11T13:30:45.277Z,77.96
2016-04-11T13:30:59.090Z,78.05
2016-04-11T13:31:27.591Z,78.53
2016-04-11T13:31:41.450Z,78.62
2016-04-11T13:31:55.435Z,79.1
2016-04-11T13:32:08.825Z,79.19
2016-04-11T13:32:22.951Z,79.47
2016-04-11T13:32:36.889Z,78.91
2016-04-11T13:32:50.701Z,79.19
2016-04-11T13:33:04.483Z,79
2016-04-11T13:33:18.264Z,78.66
2016-04-11T13:33:31.827Z,78.47
2016-04-11T13:33:46.030Z,77.81
2016-04-11T13:33:59.920Z,77.05
2016-04-11T13:34:14.061Z,76.86
2016-04-11T13:34:56.250Z,75.72
2016-04-11T13:35:10.015Z,76.2
2016-04-11T13:35:23.817Z,76.29
2016-04-11T13:35:37.786Z,76.76
2016-04-11T13:35:51.708Z,76.67
2016-04-11T13:36:05.536Z,77.62
2016-04-11T13:36:19.477Z,77.43
2016-04-11T13:36:33.508Z,77.71
2016-04-11T13:36:47.274Z,77.52
2016-04-11T13:37:01.680Z,76.86
2016-04-11T13:37:15.590Z,76.9
2016-04-11T13:37:29.527Z,76.9
2016-04-11T13:37:43.543Z,77.18
2016-04-11T13:37:57.371Z,76.99
2016-04-11T13:38:11.246Z,76.99
2016-04-11T13:38:25.592Z,76.61
2016-04-11T13:38:39.702Z,76.23
2016-04-11T13:38:53.842Z,76.42
2016-04-11T13:39:08.030Z,75.95
2016-04-11T13:39:22.033Z,75.76
2016-04-11T13:39:36.017Z,76.14
2016-04-11T13:39:49.642Z,75.85
2016-04-11T13:40:04.002Z,75.76
2016-04-11T13:40:18.026Z,76.04
2016-04-11T13:40:31.870Z,75.85
2016-04-11T13:40:45.823Z,76.14
2016-04-11T13:40:59.667Z,76.32
2016-04-11T13:41:13.526Z,76.61
2016-04-11T13:41:28.145Z,76.32
2016-04-11T13:41:42.051Z,75.95
2016-04-11T13:41:56.192Z,75.15
2016-04-11T13:42:10.114Z,74.96
2016-04-11T13:42:24.122Z,74.2
2016-04-11T13:42:37.903Z,73.72
2016-04-11T13:42:51.872Z,72.88
2016-04-11T13:43:05.559Z,73.25
2016-04-11T13:43:22.348Z,73.16
2016-04-11T13:43:37.005Z,73.16
2016-04-11T13:43:51.161Z,73.63
2016-04-11T13:44:05.286Z,74.3
2016-04-11T13:44:18.920Z,74.3
2016-04-11T13:44:32.967Z,74.01
2016-04-11T13:44:47.217Z,73.31
2016-04-11T13:45:01.420Z,72.74
2016-04-11T13:45:29.378Z,73.5
2016-04-11T13:45:43.425Z,73.41
2016-04-11T13:45:57.534Z,72.74
2016-04-11T13:46:14.331Z,72.45
2016-04-11T13:46:28.195Z,72.17
2016-04-11T13:46:42.274Z,71.92
2016-04-11T13:46:56.399Z,70.69
2016-04-11T13:47:10.617Z,71.17
2016-04-11T13:47:52.669Z,69.93
2016-04-11T13:48:06.325Z,69.74
2016-04-11T13:48:20.315Z,69.65
2016-04-11T13:48:34.205Z,69.84
2016-04-11T13:48:47.924Z,70.5
2016-04-11T13:49:19.132Z,72.21
2016-04-11T13:49:33.007Z,73.72
2016-04-11T13:49:47.148Z,74.68
2016-04-11T13:50:00.960Z,75.76
2016-04-11T13:50:15.117Z,76.04
2016-04-11T13:50:29.168Z,76.57
2016-04-11T13:50:43.121Z,76.61
2016-04-11T13:50:57.074Z,76.29
2016-04-11T13:51:10.996Z,76.76
2016-04-11T13:51:39.671Z,76.95
2016-04-11T13:52:07.624Z,77.33
2016-04-11T13:52:21.831Z,77.43
2016-04-11T13:52:35.612Z,77.24
2016-04-11T13:52:49.675Z,77.39
2016-04-11T13:53:03.550Z,77.62
2016-04-11T13:53:16.724Z,78.15
2016-04-11T13:53:30.865Z,78.34
2016-04-11T13:53:45.021Z,77.86
2016-04-11T13:53:59.303Z,76.92
2016-04-11T13:54:13.365Z,76.63
2016-04-11T13:54:27.244Z,76.59
2016-04-11T13:55:12.885Z,78.62
2016-04-11T13:55:26.903Z,79.1
2016-04-11T13:55:40.731Z,79.47
2016-04-11T13:55:54.763Z,79.76
2016-04-11T13:56:11.716Z,78.87
2016-04-11T13:56:25.609Z,79.91
2016-04-11T13:56:39.453Z,80.76
2016-04-11T13:56:53.188Z,81.14
2016-04-11T13:57:07.047Z,81.52
2016-04-11T13:57:20.972Z,81.14
2016-04-11T13:57:34.941Z,81.71
2016-04-11T13:57:49.081Z,81.99
2016-04-11T13:58:03.034Z,81.81
2016-04-11T13:58:16.897Z,81.71
2016-04-11T13:58:30.881Z,81.71
2016-04-11T13:58:44.819Z,81.33
2016-04-11T13:58:58.584Z,81.43
2016-04-11T13:59:12.709Z,81.24
2016-04-11T13:59:26.415Z,81.43
2016-04-11T13:59:40.072Z,81.81
2016-04-11T13:59:53.993Z,81.43
2016-04-11T14:00:36.027Z,81.24
2016-04-11T14:00:50.089Z,81.24
2016-04-11T14:01:04.058Z,81.47
2016-04-11T14:01:18.092Z,81.09
2016-04-11T14:01:32.248Z,80.1
2016-04-11T14:01:46.608Z,79.66
2016-04-11T14:02:00.545Z,79.63
2016-04-11T14:02:14.592Z,79.53
2016-04-11T14:02:28.564Z,79.57
2016-04-11T14:02:42.595Z,80.24
2016-04-11T14:02:56.564Z,79.66
2016-04-11T14:03:10.736Z,80.04
2016-04-11T14:03:24.661Z,79.28
2016-04-11T14:03:38.536Z,78.34
2016-04-11T14:03:52.489Z,77.48
2016-04-11T14:04:06.254Z,76.82
2016-04-11T14:04:20.350Z,75.59